sensor_id;sensor_type;location;lat;lon;timestamp;P1;durP1;ratioP1;P2;durP2;ratioP2
37477;SDS011;23334;54.316;10.182;2023-05-10T00:01:43;3.37;;;2.93;;
37477;SDS011;23334;54.316;10.182;2023-05-10T00:04:08;8.53;;;3.10;;
37477;SDS011;23334;54.316;10.182;2023-05-10T00:06:33;6.60;;;2.90;;
37477;SDS011;23334;54.316;10.182;2023-05-10T00:08:59;5.20;;;2.90;;
37477;SDS011;23334;54.316;10.182;2023-05-10T00:11:24;3.87;;;2.53;;
37477;SDS011;23334;54.316;10.182;2023-05-10T00:13:50;3.07;;;2.77;;
37477;SDS011;23334;54.316;10.182;2023-05-10T00:16:15;3.30;;;2.70;;
37477;SDS011;23334;54.316;10.182;2023-05-10T00:18:41;9.30;;;2.53;;
37477;SDS011;23334;54.316;10.182;2023-05-10T00:21:08;2.77;;;2.53;;
37477;SDS011;23334;54.316;10.182;2023-05-10T00:23:33;8.50;;;3.00;;
37477;SDS011;23334;54.316;10.182;2023-05-10T00:25:58;3.37;;;3.07;;
37477;SDS011;23334;54.316;10.182;2023-05-10T00:28:24;2.77;;;2.57;;
37477;SDS011;23334;54.316;10.182;2023-05-10T00:30:49;3.30;;;3.00;;
37477;SDS011;23334;54.316;10.182;2023-05-10T00:33:15;3.47;;;3.17;;
37477;SDS011;23334;54.316;10.182;2023-05-10T00:35:40;8.83;;;2.60;;
37477;SDS011;23334;54.316;10.182;2023-05-10T00:38:06;3.40;;;2.50;;
37477;SDS011;23334;54.316;10.182;2023-05-10T00:40:32;2.90;;;2.70;;
37477;SDS011;23334;54.316;10.182;2023-05-10T00:42:57;3.60;;;2.60;;
37477;SDS011;23334;54.316;10.182;2023-05-10T00:45:25;3.70;;;2.60;;
37477;SDS011;23334;54.316;10.182;2023-05-10T00:47:51;5.03;;;2.90;;
37477;SDS011;23334;54.316;10.182;2023-05-10T00:50:20;4.60;;;2.90;;
37477;SDS011;23334;54.316;10.182;2023-05-10T00:52:46;3.50;;;2.93;;
37477;SDS011;23334;54.316;10.182;2023-05-10T00:55:12;4.23;;;2.83;;
37477;SDS011;23334;54.316;10.182;2023-05-10T00:57:38;3.20;;;2.90;;
37477;SDS011;23334;54.316;10.182;2023-05-10T01:00:04;7.40;;;2.83;;
37477;SDS011;23334;54.316;10.182;2023-05-10T01:02:30;2.80;;;2.70;;
37477;SDS011;23334;54.316;10.182;2023-05-10T01:04:55;3.93;;;3.30;;
37477;SDS011;23334;54.316;10.182;2023-05-10T01:07:21;5.33;;;2.90;;
37477;SDS011;23334;54.316;10.182;2023-05-10T01:09:47;4.43;;;2.70;;
37477;SDS011;23334;54.316;10.182;2023-05-10T01:12:12;2.53;;;2.33;;
37477;SDS011;23334;54.316;10.182;2023-05-10T01:14:38;2.87;;;2.67;;
37477;SDS011;23334;54.316;10.182;2023-05-10T01:17:05;3.60;;;3.30;;
37477;SDS011;23334;54.316;10.182;2023-05-10T01:19:31;4.87;;;2.90;;
37477;SDS011;23334;54.316;10.182;2023-05-10T01:22:10;5.10;;;2.70;;
37477;SDS011;23334;54.316;10.182;2023-05-10T01:31:03;3.70;;;3.40;;
37477;SDS011;23334;54.316;10.182;2023-05-10T01:36:40;3.73;;;3.43;;
37477;SDS011;23334;54.316;10.182;2023-05-10T01:39:21;3.43;;;2.80;;
37477;SDS011;23334;54.316;10.182;2023-05-10T01:41:55;11.30;;;3.40;;
37477;SDS011;23334;54.316;10.182;2023-05-10T01:44:35;3.70;;;2.60;;
37477;SDS011;23334;54.316;10.182;2023-05-10T01:47:06;5.73;;;2.90;;
37477;SDS011;23334;54.316;10.182;2023-05-10T01:49:36;3.10;;;2.80;;
37477;SDS011;23334;54.316;10.182;2023-05-10T01:52:09;4.83;;;2.93;;
37477;SDS011;23334;54.316;10.182;2023-05-10T01:54:41;3.20;;;2.87;;
37477;SDS011;23334;54.316;10.182;2023-05-10T01:57:14;18.40;;;3.60;;
37477;SDS011;23334;54.316;10.182;2023-05-10T01:59:44;4.20;;;3.60;;
37477;SDS011;23334;54.316;10.182;2023-05-10T02:02:14;3.83;;;3.47;;
37477;SDS011;23334;54.316;10.182;2023-05-10T02:04:40;3.63;;;3.10;;
37477;SDS011;23334;54.316;10.182;2023-05-10T02:07:07;3.10;;;2.90;;
37477;SDS011;23334;54.316;10.182;2023-05-10T02:09:34;12.90;;;3.63;;
37477;SDS011;23334;54.316;10.182;2023-05-10T02:12:01;3.20;;;3.00;;
37477;SDS011;23334;54.316;10.182;2023-05-10T02:14:29;7.40;;;3.40;;
37477;SDS011;23334;54.316;10.182;2023-05-10T02:16:59;3.27;;;2.97;;
37477;SDS011;23334;54.316;10.182;2023-05-10T02:19:25;3.50;;;2.90;;
37477;SDS011;23334;54.316;10.182;2023-05-10T02:31:23;2.93;;;2.73;;
37477;SDS011;23334;54.316;10.182;2023-05-10T02:33:50;7.20;;;3.67;;
37477;SDS011;23334;54.316;10.182;2023-05-10T02:36:16;2.77;;;2.57;;
37477;SDS011;23334;54.316;10.182;2023-05-10T02:38:44;2.90;;;2.80;;
37477;SDS011;23334;54.316;10.182;2023-05-10T02:41:10;4.20;;;3.43;;
37477;SDS011;23334;54.316;10.182;2023-05-10T02:43:36;3.23;;;2.93;;
37477;SDS011;23334;54.316;10.182;2023-05-10T02:46:04;8.50;;;3.53;;
37477;SDS011;23334;54.316;10.182;2023-05-10T02:48:30;3.17;;;2.90;;
37477;SDS011;23334;54.316;10.182;2023-05-10T02:50:56;9.30;;;3.03;;
37477;SDS011;23334;54.316;10.182;2023-05-10T02:53:32;3.10;;;2.90;;
37477;SDS011;23334;54.316;10.182;2023-05-10T02:56:00;4.33;;;3.30;;
37477;SDS011;23334;54.316;10.182;2023-05-10T02:58:29;3.83;;;3.27;;
37477;SDS011;23334;54.316;10.182;2023-05-10T03:00:55;3.27;;;3.07;;
37477;SDS011;23334;54.316;10.182;2023-05-10T03:03:20;8.73;;;3.30;;
37477;SDS011;23334;54.316;10.182;2023-05-10T03:05:46;4.97;;;3.20;;
37477;SDS011;23334;54.316;10.182;2023-05-10T03:08:11;3.00;;;2.80;;
37477;SDS011;23334;54.316;10.182;2023-05-10T03:13:44;3.50;;;2.90;;
37477;SDS011;23334;54.316;10.182;2023-05-10T03:16:35;3.77;;;2.83;;
37477;SDS011;23334;54.316;10.182;2023-05-10T03:19:17;4.63;;;3.43;;
37477;SDS011;23334;54.316;10.182;2023-05-10T03:21:50;3.23;;;3.03;;
37477;SDS011;23334;54.316;10.182;2023-05-10T03:24:18;5.90;;;3.23;;
37477;SDS011;23334;54.316;10.182;2023-05-10T03:26:46;5.07;;;3.27;;
37477;SDS011;23334;54.316;10.182;2023-05-10T03:29:13;3.47;;;3.17;;
37477;SDS011;23334;54.316;10.182;2023-05-10T03:31:40;5.37;;;3.47;;
37477;SDS011;23334;54.316;10.182;2023-05-10T03:34:06;4.43;;;3.50;;
37477;SDS011;23334;54.316;10.182;2023-05-10T03:36:32;6.27;;;3.43;;
37477;SDS011;23334;54.316;10.182;2023-05-10T03:38:57;3.80;;;3.50;;
37477;SDS011;23334;54.316;10.182;2023-05-10T03:41:24;3.00;;;2.80;;
37477;SDS011;23334;54.316;10.182;2023-05-10T03:43:50;4.63;;;3.50;;
37477;SDS011;23334;54.316;10.182;2023-05-10T03:46:16;7.87;;;3.43;;
37477;SDS011;23334;54.316;10.182;2023-05-10T03:48:41;3.40;;;2.97;;
37477;SDS011;23334;54.316;10.182;2023-05-10T03:51:07;3.70;;;3.40;;
37477;SDS011;23334;54.316;10.182;2023-05-10T03:53:32;7.90;;;3.50;;
37477;SDS011;23334;54.316;10.182;2023-05-10T03:55:58;6.63;;;3.50;;
37477;SDS011;23334;54.316;10.182;2023-05-10T03:58:24;5.57;;;3.40;;
37477;SDS011;23334;54.316;10.182;2023-05-10T04:00:50;5.73;;;3.30;;
37477;SDS011;23334;54.316;10.182;2023-05-10T04:03:16;6.03;;;3.80;;
37477;SDS011;23334;54.316;10.182;2023-05-10T04:05:42;3.20;;;3.00;;
37477;SDS011;23334;54.316;10.182;2023-05-10T04:08:08;3.40;;;3.20;;
37477;SDS011;23334;54.316;10.182;2023-05-10T04:10:33;4.07;;;3.67;;
37477;SDS011;23334;54.316;10.182;2023-05-10T04:12:59;6.23;;;3.60;;
37477;SDS011;23334;54.316;10.182;2023-05-10T04:15:24;4.00;;;3.70;;
37477;SDS011;23334;54.316;10.182;2023-05-10T04:17:50;3.80;;;3.20;;
37477;SDS011;23334;54.316;10.182;2023-05-10T04:20:16;8.67;;;2.83;;
37477;SDS011;23334;54.316;10.182;2023-05-10T04:22:42;3.87;;;3.50;;
37477;SDS011;23334;54.316;10.182;2023-05-10T04:25:07;3.63;;;3.30;;
37477;SDS011;23334;54.316;10.182;2023-05-10T04:27:35;3.50;;;3.20;;
37477;SDS011;23334;54.316;10.182;2023-05-10T04:30:01;5.97;;;3.23;;
37477;SDS011;23334;54.316;10.182;2023-05-10T04:32:27;4.23;;;3.93;;
37477;SDS011;23334;54.316;10.182;2023-05-10T04:34:53;4.73;;;3.60;;
37477;SDS011;23334;54.316;10.182;2023-05-10T04:37:18;6.37;;;4.00;;
37477;SDS011;23334;54.316;10.182;2023-05-10T04:39:47;7.60;;;3.80;;
37477;SDS011;23334;54.316;10.182;2023-05-10T04:42:13;3.90;;;3.53;;
37477;SDS011;23334;54.316;10.182;2023-05-10T04:44:39;3.90;;;3.60;;
37477;SDS011;23334;54.316;10.182;2023-05-10T04:47:05;7.27;;;3.33;;
37477;SDS011;23334;54.316;10.182;2023-05-10T04:49:32;4.10;;;3.73;;
37477;SDS011;23334;54.316;10.182;2023-05-10T04:51:57;4.30;;;3.90;;
37477;SDS011;23334;54.316;10.182;2023-05-10T04:54:24;8.97;;;3.47;;
37477;SDS011;23334;54.316;10.182;2023-05-10T04:56:49;3.50;;;3.30;;
37477;SDS011;23334;54.316;10.182;2023-05-10T04:59:15;3.63;;;3.17;;
37477;SDS011;23334;54.316;10.182;2023-05-10T05:01:41;3.83;;;3.53;;
37477;SDS011;23334;54.316;10.182;2023-05-10T05:04:06;6.90;;;3.70;;
37477;SDS011;23334;54.316;10.182;2023-05-10T05:06:32;5.43;;;3.80;;
37477;SDS011;23334;54.316;10.182;2023-05-10T05:09:00;3.97;;;3.67;;
37477;SDS011;23334;54.316;10.182;2023-05-10T05:11:26;4.00;;;3.70;;
37477;SDS011;23334;54.316;10.182;2023-05-10T05:13:51;5.03;;;3.57;;
37477;SDS011;23334;54.316;10.182;2023-05-10T05:16:17;3.90;;;3.60;;
37477;SDS011;23334;54.316;10.182;2023-05-10T05:18:42;7.60;;;3.67;;
37477;SDS011;23334;54.316;10.182;2023-05-10T05:21:14;3.63;;;3.30;;
37477;SDS011;23334;54.316;10.182;2023-05-10T05:23:41;4.10;;;3.40;;
37477;SDS011;23334;54.316;10.182;2023-05-10T05:26:06;6.93;;;3.90;;
37477;SDS011;23334;54.316;10.182;2023-05-10T05:28:32;3.30;;;3.10;;
37477;SDS011;23334;54.316;10.182;2023-05-10T05:31:02;3.67;;;3.37;;
37477;SDS011;23334;54.316;10.182;2023-05-10T05:33:28;5.37;;;3.67;;
37477;SDS011;23334;54.316;10.182;2023-05-10T05:35:53;4.80;;;3.77;;
37477;SDS011;23334;54.316;10.182;2023-05-10T05:38:19;3.73;;;3.37;;
37477;SDS011;23334;54.316;10.182;2023-05-10T05:40:44;3.60;;;3.27;;
37477;SDS011;23334;54.316;10.182;2023-05-10T05:43:10;5.57;;;3.40;;
37477;SDS011;23334;54.316;10.182;2023-05-10T05:45:36;3.57;;;3.27;;
37477;SDS011;23334;54.316;10.182;2023-05-10T05:48:03;5.70;;;4.30;;
37477;SDS011;23334;54.316;10.182;2023-05-10T05:50:29;10.20;;;3.97;;
37477;SDS011;23334;54.316;10.182;2023-05-10T05:52:55;3.43;;;3.20;;
37477;SDS011;23334;54.316;10.182;2023-05-10T05:55:23;3.97;;;3.20;;
37477;SDS011;23334;54.316;10.182;2023-05-10T05:57:51;3.70;;;3.50;;
37477;SDS011;23334;54.316;10.182;2023-05-10T06:00:16;4.73;;;3.53;;
37477;SDS011;23334;54.316;10.182;2023-05-10T06:02:42;4.63;;;3.43;;
37477;SDS011;23334;54.316;10.182;2023-05-10T06:05:08;3.90;;;3.70;;
37477;SDS011;23334;54.316;10.182;2023-05-10T06:11:09;5.70;;;4.00;;
37477;SDS011;23334;54.316;10.182;2023-05-10T06:18:04;4.20;;;3.80;;
37477;SDS011;23334;54.316;10.182;2023-05-10T06:21:29;3.90;;;3.50;;
37477;SDS011;23334;54.316;10.182;2023-05-10T06:24:52;4.03;;;2.93;;
37477;SDS011;23334;54.316;10.182;2023-05-10T06:28:31;6.23;;;4.33;;
37477;SDS011;23334;54.316;10.182;2023-05-10T06:35:32;4.40;;;3.80;;
37477;SDS011;23334;54.316;10.182;2023-05-10T06:41:50;4.13;;;3.73;;
37477;SDS011;23334;54.316;10.182;2023-05-10T07:01:49;7.63;;;4.30;;
37477;SDS011;23334;54.316;10.182;2023-05-10T07:04:15;4.90;;;3.87;;
37477;SDS011;23334;54.316;10.182;2023-05-10T07:06:40;11.83;;;3.77;;
37477;SDS011;23334;54.316;10.182;2023-05-10T07:09:06;6.00;;;4.20;;
37477;SDS011;23334;54.316;10.182;2023-05-10T07:11:32;4.60;;;4.20;;
37477;SDS011;23334;54.316;10.182;2023-05-10T07:13:58;4.40;;;4.00;;
37477;SDS011;23334;54.316;10.182;2023-05-10T07:16:23;10.03;;;3.90;;
37477;SDS011;23334;54.316;10.182;2023-05-10T07:18:49;3.77;;;3.37;;
37477;SDS011;23334;54.316;10.182;2023-05-10T07:21:15;5.17;;;4.03;;
37477;SDS011;23334;54.316;10.182;2023-05-10T07:23:41;7.60;;;3.97;;
37477;SDS011;23334;54.316;10.182;2023-05-10T07:26:07;4.77;;;4.03;;
37477;SDS011;23334;54.316;10.182;2023-05-10T07:28:34;3.83;;;3.60;;
37477;SDS011;23334;54.316;10.182;2023-05-10T07:31:02;5.80;;;3.90;;
37477;SDS011;23334;54.316;10.182;2023-05-10T07:33:27;4.43;;;4.00;;
37477;SDS011;23334;54.316;10.182;2023-05-10T07:35:53;5.03;;;3.60;;
37477;SDS011;23334;54.316;10.182;2023-05-10T07:38:19;4.37;;;3.83;;
37477;SDS011;23334;54.316;10.182;2023-05-10T07:40:44;10.60;;;4.50;;
37477;SDS011;23334;54.316;10.182;2023-05-10T07:43:10;4.47;;;4.13;;
37477;SDS011;23334;54.316;10.182;2023-05-10T07:45:36;4.60;;;3.70;;
37477;SDS011;23334;54.316;10.182;2023-05-10T07:48:01;3.77;;;3.47;;
37477;SDS011;23334;54.316;10.182;2023-05-10T07:50:27;7.70;;;4.53;;
37477;SDS011;23334;54.316;10.182;2023-05-10T07:52:53;4.73;;;4.23;;
37477;SDS011;23334;54.316;10.182;2023-05-10T07:55:19;4.53;;;3.40;;
37477;SDS011;23334;54.316;10.182;2023-05-10T07:57:46;8.10;;;3.97;;
37477;SDS011;23334;54.316;10.182;2023-05-10T08:00:16;3.63;;;3.27;;
37477;SDS011;23334;54.316;10.182;2023-05-10T08:02:43;4.40;;;4.00;;
37477;SDS011;23334;54.316;10.182;2023-05-10T08:05:09;8.00;;;3.70;;
37477;SDS011;23334;54.316;10.182;2023-05-10T08:07:36;3.73;;;3.50;;
37477;SDS011;23334;54.316;10.182;2023-05-10T08:10:02;4.40;;;4.00;;
37477;SDS011;23334;54.316;10.182;2023-05-10T08:12:29;3.73;;;3.53;;
37477;SDS011;23334;54.316;10.182;2023-05-10T08:15:03;5.23;;;3.83;;
37477;SDS011;23334;54.316;10.182;2023-05-10T08:17:50;5.07;;;3.30;;
37477;SDS011;23334;54.316;10.182;2023-05-10T08:24:26;5.60;;;3.87;;
37477;SDS011;23334;54.316;10.182;2023-05-10T08:30:25;3.83;;;3.43;;
37477;SDS011;23334;54.316;10.182;2023-05-10T08:34:08;11.43;;;3.73;;
37477;SDS011;23334;54.316;10.182;2023-05-10T08:37:32;4.77;;;3.53;;
37477;SDS011;23334;54.316;10.182;2023-05-10T08:40:08;7.43;;;4.03;;
37477;SDS011;23334;54.316;10.182;2023-05-10T08:43:00;3.70;;;3.20;;
37477;SDS011;23334;54.316;10.182;2023-05-10T08:46:00;4.37;;;3.60;;
37477;SDS011;23334;54.316;10.182;2023-05-10T08:48:53;4.43;;;3.90;;
37477;SDS011;23334;54.316;10.182;2023-05-10T08:54:17;4.20;;;3.60;;
37477;SDS011;23334;54.316;10.182;2023-05-10T08:57:15;4.67;;;3.43;;
37477;SDS011;23334;54.316;10.182;2023-05-10T09:00:25;5.80;;;3.77;;
37477;SDS011;23334;54.316;10.182;2023-05-10T09:03:50;4.83;;;3.63;;
37477;SDS011;23334;54.316;10.182;2023-05-10T09:10:03;4.93;;;4.50;;
37477;SDS011;23334;54.316;10.182;2023-05-10T09:13:11;3.47;;;3.20;;
37477;SDS011;23334;54.316;10.182;2023-05-10T09:16:15;3.73;;;3.37;;
37477;SDS011;23334;54.316;10.182;2023-05-10T09:22:41;4.30;;;3.93;;
37477;SDS011;23334;54.316;10.182;2023-05-10T09:25:15;4.13;;;3.20;;
37477;SDS011;23334;54.316;10.182;2023-05-10T09:27:50;14.50;;;6.90;;
37477;SDS011;23334;54.316;10.182;2023-05-10T09:30:17;8.90;;;4.97;;
37477;SDS011;23334;54.316;10.182;2023-05-10T09:32:49;5.93;;;4.03;;
37477;SDS011;23334;54.316;10.182;2023-05-10T09:35:16;4.77;;;4.37;;
37477;SDS011;23334;54.316;10.182;2023-05-10T09:37:50;4.40;;;4.10;;
37477;SDS011;23334;54.316;10.182;2023-05-10T09:40:33;4.80;;;4.40;;
37477;SDS011;23334;54.316;10.182;2023-05-10T09:43:00;4.50;;;3.67;;
37477;SDS011;23334;54.316;10.182;2023-05-10T09:45:28;5.93;;;3.37;;
37477;SDS011;23334;54.316;10.182;2023-05-10T09:50:57;7.00;;;3.80;;
37477;SDS011;23334;54.316;10.182;2023-05-10T09:53:29;9.03;;;4.23;;
37477;SDS011;23334;54.316;10.182;2023-05-10T09:56:04;3.90;;;3.50;;
37477;SDS011;23334;54.316;10.182;2023-05-10T09:58:38;3.47;;;3.27;;
37477;SDS011;23334;54.316;10.182;2023-05-10T10:01:29;4.53;;;4.13;;
37477;SDS011;23334;54.316;10.182;2023-05-10T10:04:08;3.80;;;3.53;;
37477;SDS011;23334;54.316;10.182;2023-05-10T10:06:40;7.57;;;4.20;;
37477;SDS011;23334;54.316;10.182;2023-05-10T10:09:06;6.67;;;3.77;;
37477;SDS011;23334;54.316;10.182;2023-05-10T10:11:39;4.87;;;4.00;;
37477;SDS011;23334;54.316;10.182;2023-05-10T10:14:11;4.43;;;4.03;;
37477;SDS011;23334;54.316;10.182;2023-05-10T10:17:13;3.70;;;3.50;;
37477;SDS011;23334;54.316;10.182;2023-05-10T10:20:28;4.00;;;3.70;;
37477;SDS011;23334;54.316;10.182;2023-05-10T10:23:00;5.17;;;4.53;;
37477;SDS011;23334;54.316;10.182;2023-05-10T10:26:01;4.33;;;3.93;;
37477;SDS011;23334;54.316;10.182;2023-05-10T10:32:10;4.70;;;4.30;;
37477;SDS011;23334;54.316;10.182;2023-05-10T10:34:55;5.03;;;4.63;;
37477;SDS011;23334;54.316;10.182;2023-05-10T10:37:44;5.20;;;4.50;;
37477;SDS011;23334;54.316;10.182;2023-05-10T10:43:23;4.37;;;4.07;;
37477;SDS011;23334;54.316;10.182;2023-05-10T10:50:13;6.97;;;4.60;;
37477;SDS011;23334;54.316;10.182;2023-05-10T10:53:36;5.73;;;3.93;;
37477;SDS011;23334;54.316;10.182;2023-05-10T10:57:17;4.63;;;4.20;;
37477;SDS011;23334;54.316;10.182;2023-05-10T11:04:41;4.80;;;4.40;;
37477;SDS011;23334;54.316;10.182;2023-05-10T11:21:00;4.70;;;4.30;;
37477;SDS011;23334;54.316;10.182;2023-05-10T11:37:47;4.57;;;4.27;;
37477;SDS011;23334;54.316;10.182;2023-05-10T11:43:45;9.00;;;4.50;;
37477;SDS011;23334;54.316;10.182;2023-05-10T11:46:18;5.87;;;4.53;;
37477;SDS011;23334;54.316;10.182;2023-05-10T11:49:37;5.00;;;4.60;;
37477;SDS011;23334;54.316;10.182;2023-05-10T11:55:37;5.37;;;3.83;;
37477;SDS011;23334;54.316;10.182;2023-05-10T11:58:56;4.60;;;4.20;;
37477;SDS011;23334;54.316;10.182;2023-05-10T12:01:23;5.60;;;4.10;;
37477;SDS011;23334;54.316;10.182;2023-05-10T12:04:17;6.33;;;5.13;;
37477;SDS011;23334;54.316;10.182;2023-05-10T12:07:41;11.63;;;5.27;;
37477;SDS011;23334;54.316;10.182;2023-05-10T12:11:29;5.73;;;4.83;;
37477;SDS011;23334;54.316;10.182;2023-05-10T12:14:25;4.83;;;4.43;;
37477;SDS011;23334;54.316;10.182;2023-05-10T12:16:57;7.10;;;4.80;;
37477;SDS011;23334;54.316;10.182;2023-05-10T12:20:20;6.50;;;4.90;;
37477;SDS011;23334;54.316;10.182;2023-05-10T12:23:11;5.63;;;4.53;;
37477;SDS011;23334;54.316;10.182;2023-05-10T12:26:17;9.77;;;4.60;;
37477;SDS011;23334;54.316;10.182;2023-05-10T12:28:43;4.80;;;4.40;;
37477;SDS011;23334;54.316;10.182;2023-05-10T12:31:09;5.33;;;4.80;;
37477;SDS011;23334;54.316;10.182;2023-05-10T12:33:35;9.13;;;4.80;;
37477;SDS011;23334;54.316;10.182;2023-05-10T12:36:06;5.60;;;5.07;;
37477;SDS011;23334;54.316;10.182;2023-05-10T12:38:33;5.37;;;4.97;;
37477;SDS011;23334;54.316;10.182;2023-05-10T12:41:03;7.40;;;6.23;;
37477;SDS011;23334;54.316;10.182;2023-05-10T12:43:30;9.97;;;5.80;;
37477;SDS011;23334;54.316;10.182;2023-05-10T12:45:56;13.77;;;7.80;;
37477;SDS011;23334;54.316;10.182;2023-05-10T12:48:22;8.57;;;7.77;;
37477;SDS011;23334;54.316;10.182;2023-05-10T12:50:48;8.67;;;7.60;;
37477;SDS011;23334;54.316;10.182;2023-05-10T12:53:14;10.40;;;7.80;;
37477;SDS011;23334;54.316;10.182;2023-05-10T12:55:41;9.50;;;8.50;;
37477;SDS011;23334;54.316;10.182;2023-05-10T12:58:06;10.17;;;9.00;;
37477;SDS011;23334;54.316;10.182;2023-05-10T13:00:32;11.87;;;9.03;;
37477;SDS011;23334;54.316;10.182;2023-05-10T13:02:58;10.43;;;9.33;;
37477;SDS011;23334;54.316;10.182;2023-05-10T13:05:24;11.47;;;9.30;;
37477;SDS011;23334;54.316;10.182;2023-05-10T13:07:49;14.07;;;9.37;;
37477;SDS011;23334;54.316;10.182;2023-05-10T13:10:15;12.13;;;9.57;;
37477;SDS011;23334;54.316;10.182;2023-05-10T13:12:41;11.23;;;9.90;;
37477;SDS011;23334;54.316;10.182;2023-05-10T13:15:07;12.73;;;9.47;;
37477;SDS011;23334;54.316;10.182;2023-05-10T13:17:32;11.57;;;9.73;;
37477;SDS011;23334;54.316;10.182;2023-05-10T13:19:58;10.43;;;9.40;;
37477;SDS011;23334;54.316;10.182;2023-05-10T13:22:24;12.60;;;9.60;;
37477;SDS011;23334;54.316;10.182;2023-05-10T13:24:50;15.70;;;10.40;;
37477;SDS011;23334;54.316;10.182;2023-05-10T13:27:16;11.93;;;9.83;;
37477;SDS011;23334;54.316;10.182;2023-05-10T13:29:41;13.97;;;10.30;;
37477;SDS011;23334;54.316;10.182;2023-05-10T13:32:07;15.77;;;10.80;;
37477;SDS011;23334;54.316;10.182;2023-05-10T13:34:33;12.90;;;10.20;;
37477;SDS011;23334;54.316;10.182;2023-05-10T13:37:00;11.37;;;10.20;;
37477;SDS011;23334;54.316;10.182;2023-05-10T13:39:26;10.53;;;9.43;;
37477;SDS011;23334;54.316;10.182;2023-05-10T13:41:52;15.93;;;10.30;;
37477;SDS011;23334;54.316;10.182;2023-05-10T13:44:17;11.60;;;9.80;;
37477;SDS011;23334;54.316;10.182;2023-05-10T13:46:45;16.40;;;9.80;;
37477;SDS011;23334;54.316;10.182;2023-05-10T13:49:10;13.63;;;10.83;;
37477;SDS011;23334;54.316;10.182;2023-05-10T13:51:36;19.87;;;10.33;;
37477;SDS011;23334;54.316;10.182;2023-05-10T13:54:02;11.57;;;9.40;;
37477;SDS011;23334;54.316;10.182;2023-05-10T13:56:28;12.57;;;9.90;;
37477;SDS011;23334;54.316;10.182;2023-05-10T13:58:54;11.83;;;9.20;;
37477;SDS011;23334;54.316;10.182;2023-05-10T14:01:20;12.27;;;9.67;;
37477;SDS011;23334;54.316;10.182;2023-05-10T14:03:45;13.57;;;10.07;;
37477;SDS011;23334;54.316;10.182;2023-05-10T14:06:11;10.33;;;9.33;;
37477;SDS011;23334;54.316;10.182;2023-05-10T14:08:36;12.80;;;10.03;;
37477;SDS011;23334;54.316;10.182;2023-05-10T14:11:02;11.30;;;9.50;;
37477;SDS011;23334;54.316;10.182;2023-05-10T14:13:27;14.60;;;10.50;;
37477;SDS011;23334;54.316;10.182;2023-05-10T14:15:53;9.30;;;8.40;;
37477;SDS011;23334;54.316;10.182;2023-05-10T14:18:19;14.10;;;10.40;;
37477;SDS011;23334;54.316;10.182;2023-05-10T14:20:45;11.60;;;9.73;;
37477;SDS011;23334;54.316;10.182;2023-05-10T14:23:10;11.20;;;8.80;;
37477;SDS011;23334;54.316;10.182;2023-05-10T14:25:37;14.27;;;10.43;;
37477;SDS011;23334;54.316;10.182;2023-05-10T14:28:03;18.17;;;10.03;;
37477;SDS011;23334;54.316;10.182;2023-05-10T14:30:29;15.83;;;10.50;;
37477;SDS011;23334;54.316;10.182;2023-05-10T14:32:55;14.30;;;9.80;;
37477;SDS011;23334;54.316;10.182;2023-05-10T14:35:23;11.53;;;9.70;;
37477;SDS011;23334;54.316;10.182;2023-05-10T14:37:49;14.27;;;9.87;;
37477;SDS011;23334;54.316;10.182;2023-05-10T14:40:15;10.73;;;9.27;;
37477;SDS011;23334;54.316;10.182;2023-05-10T14:42:42;9.60;;;8.23;;
37477;SDS011;23334;54.316;10.182;2023-05-10T14:45:08;10.33;;;7.97;;
37477;SDS011;23334;54.316;10.182;2023-05-10T14:47:34;26.33;;;7.97;;
37477;SDS011;23334;54.316;10.182;2023-05-10T14:50:01;11.50;;;8.50;;
37477;SDS011;23334;54.316;10.182;2023-05-10T14:52:27;9.23;;;7.50;;
37477;SDS011;23334;54.316;10.182;2023-05-10T14:54:52;8.47;;;7.60;;
37477;SDS011;23334;54.316;10.182;2023-05-10T14:57:18;9.00;;;7.67;;
37477;SDS011;23334;54.316;10.182;2023-05-10T14:59:45;8.60;;;7.70;;
37477;SDS011;23334;54.316;10.182;2023-05-10T15:02:10;8.73;;;7.13;;
37477;SDS011;23334;54.316;10.182;2023-05-10T15:04:37;10.50;;;8.67;;
37477;SDS011;23334;54.316;10.182;2023-05-10T15:07:03;9.23;;;7.23;;
37477;SDS011;23334;54.316;10.182;2023-05-10T15:09:29;7.90;;;7.20;;
37477;SDS011;23334;54.316;10.182;2023-05-10T15:11:54;10.90;;;8.17;;
37477;SDS011;23334;54.316;10.182;2023-05-10T15:14:20;15.43;;;8.50;;
37477;SDS011;23334;54.316;10.182;2023-05-10T15:16:46;8.80;;;7.90;;
37477;SDS011;23334;54.316;10.182;2023-05-10T15:19:12;11.67;;;6.80;;
37477;SDS011;23334;54.316;10.182;2023-05-10T15:21:37;8.20;;;7.23;;
37477;SDS011;23334;54.316;10.182;2023-05-10T15:24:06;12.40;;;7.17;;
37477;SDS011;23334;54.316;10.182;2023-05-10T15:26:32;9.60;;;6.87;;
37477;SDS011;23334;54.316;10.182;2023-05-10T15:28:58;7.27;;;6.57;;
37477;SDS011;23334;54.316;10.182;2023-05-10T15:31:24;7.97;;;7.17;;
37477;SDS011;23334;54.316;10.182;2023-05-10T15:33:49;8.13;;;6.80;;
37477;SDS011;23334;54.316;10.182;2023-05-10T15:36:15;7.60;;;5.70;;
37477;SDS011;23334;54.316;10.182;2023-05-10T15:38:42;6.87;;;5.77;;
37477;SDS011;23334;54.316;10.182;2023-05-10T15:41:08;6.87;;;6.00;;
37477;SDS011;23334;54.316;10.182;2023-05-10T15:43:34;6.90;;;6.23;;
37477;SDS011;23334;54.316;10.182;2023-05-10T15:46:00;6.30;;;5.30;;
37477;SDS011;23334;54.316;10.182;2023-05-10T15:48:27;7.27;;;5.90;;
37477;SDS011;23334;54.316;10.182;2023-05-10T15:50:56;7.80;;;6.00;;
37477;SDS011;23334;54.316;10.182;2023-05-10T15:53:21;6.90;;;5.30;;
37477;SDS011;23334;54.316;10.182;2023-05-10T15:55:47;7.80;;;5.67;;
37477;SDS011;23334;54.316;10.182;2023-05-10T15:58:12;5.13;;;4.70;;
37477;SDS011;23334;54.316;10.182;2023-05-10T16:00:38;4.53;;;4.13;;
37477;SDS011;23334;54.316;10.182;2023-05-10T16:03:04;5.10;;;4.60;;
37477;SDS011;23334;54.316;10.182;2023-05-10T16:05:31;5.10;;;4.70;;
37477;SDS011;23334;54.316;10.182;2023-05-10T16:07:57;5.23;;;4.83;;
37477;SDS011;23334;54.316;10.182;2023-05-10T16:10:23;5.43;;;4.83;;
37477;SDS011;23334;54.316;10.182;2023-05-10T16:12:49;6.03;;;5.43;;
37477;SDS011;23334;54.316;10.182;2023-05-10T16:15:15;5.53;;;5.13;;
37477;SDS011;23334;54.316;10.182;2023-05-10T16:17:41;7.10;;;5.00;;
37477;SDS011;23334;54.316;10.182;2023-05-10T16:20:07;8.27;;;4.93;;
37477;SDS011;23334;54.316;10.182;2023-05-10T16:22:32;5.77;;;5.27;;
37477;SDS011;23334;54.316;10.182;2023-05-10T16:24:59;6.63;;;5.43;;
37477;SDS011;23334;54.316;10.182;2023-05-10T16:27:25;9.37;;;5.50;;
37477;SDS011;23334;54.316;10.182;2023-05-10T16:29:53;5.77;;;5.23;;
37477;SDS011;23334;54.316;10.182;2023-05-10T16:32:19;7.00;;;5.50;;
37477;SDS011;23334;54.316;10.182;2023-05-10T16:34:45;5.10;;;4.70;;
37477;SDS011;23334;54.316;10.182;2023-05-10T16:37:11;6.43;;;5.40;;
37477;SDS011;23334;54.316;10.182;2023-05-10T16:39:37;5.83;;;5.23;;
37477;SDS011;23334;54.316;10.182;2023-05-10T16:42:03;6.00;;;5.40;;
37477;SDS011;23334;54.316;10.182;2023-05-10T16:44:28;6.13;;;5.63;;
37477;SDS011;23334;54.316;10.182;2023-05-10T16:46:54;5.77;;;5.27;;
37477;SDS011;23334;54.316;10.182;2023-05-10T16:49:20;6.83;;;5.20;;
37477;SDS011;23334;54.316;10.182;2023-05-10T16:51:46;5.70;;;5.20;;
37477;SDS011;23334;54.316;10.182;2023-05-10T16:54:12;7.63;;;5.20;;
37477;SDS011;23334;54.316;10.182;2023-05-10T16:56:38;5.30;;;4.90;;
37477;SDS011;23334;54.316;10.182;2023-05-10T16:59:03;6.23;;;5.63;;
37477;SDS011;23334;54.316;10.182;2023-05-10T17:01:29;5.60;;;5.10;;